sensor_id;sensor_type;location;lat;lon;timestamp;pressure;altitude;pressure_sealevel;temperature;humidity
15314;BME280;7757;52.626;4.746;2023-09-18T00:00:05;100473.56;;;21.33;75.98
15314;BME280;7757;52.626;4.746;2023-09-18T00:02:34;100415.16;;;20.94;75.81
15314;BME280;7757;52.626;4.746;2023-09-18T00:04:59;100471.16;;;21.37;74.89
15314;BME280;7757;52.626;4.746;2023-09-18T00:07:27;100494.38;;;21.64;74.48
15314;BME280;7757;52.626;4.746;2023-09-18T00:09:53;100454.81;;;21.37;75.18
15314;BME280;7757;52.626;4.746;2023-09-18T00:12:18;100463.22;;;21.35;75.26
15314;BME280;7757;52.626;4.746;2023-09-18T00:14:48;100472.88;;;21.58;75.50
15314;BME280;7757;52.626;4.746;2023-09-18T00:17:14;100439.19;;;21.12;77.31
15314;BME280;7757;52.626;4.746;2023-09-18T00:19:43;100460.56;;;21.50;75.79
15314;BME280;7757;52.626;4.746;2023-09-18T00:22:09;100445.81;;;21.31;78.16
15314;BME280;7757;52.626;4.746;2023-09-18T00:24:37;100392.69;;;21.08;76.55
15314;BME280;7757;52.626;4.746;2023-09-18T00:27:05;100439.09;;;21.59;75.53
15314;BME280;7757;52.626;4.746;2023-09-18T00:29:31;100411.31;;;21.47;75.09
15314;BME280;7757;52.626;4.746;2023-09-18T00:31:56;100418.34;;;21.38;75.61
15314;BME280;7757;52.626;4.746;2023-09-18T00:34:22;100424.94;;;21.52;75.92
15314;BME280;7757;52.626;4.746;2023-09-18T00:36:47;100424.66;;;21.48;75.98
15314;BME280;7757;52.626;4.746;2023-09-18T00:39:13;100410.53;;;21.51;75.93
15314;BME280;7757;52.626;4.746;2023-09-18T00:41:40;100418.63;;;21.41;77.05
15314;BME280;7757;52.626;4.746;2023-09-18T00:44:06;100405.09;;;21.56;75.34
15314;BME280;7757;52.626;4.746;2023-09-18T00:46:32;100306.09;;;20.90;76.01
15314;BME280;7757;52.626;4.746;2023-09-18T00:48:58;100360.63;;;21.10;76.68
15314;BME280;7757;52.626;4.746;2023-09-18T00:51:23;100405.06;;;21.51;76.33
15314;BME280;7757;52.626;4.746;2023-09-18T00:53:51;100384.66;;;21.59;75.39
15314;BME280;7757;52.626;4.746;2023-09-18T00:56:17;100384.38;;;21.55;75.50
15314;BME280;7757;52.626;4.746;2023-09-18T00:58:44;100390.41;;;21.57;75.92
15314;BME280;7757;52.626;4.746;2023-09-18T01:01:11;100362.06;;;21.48;75.28
15314;BME280;7757;52.626;4.746;2023-09-18T01:03:38;100370.00;;;21.55;76.01
15314;BME280;7757;52.626;4.746;2023-09-18T01:06:04;100351.19;;;21.58;75.25
15314;BME280;7757;52.626;4.746;2023-09-18T01:08:29;100353.66;;;21.60;75.43
15314;BME280;7757;52.626;4.746;2023-09-18T01:13:28;100343.56;;;21.50;75.85
15314;BME280;7757;52.626;4.746;2023-09-18T01:15:58;100325.63;;;21.64;74.78
15314;BME280;7757;52.626;4.746;2023-09-18T01:18:27;100319.06;;;21.55;75.17
15314;BME280;7757;52.626;4.746;2023-09-18T01:20:52;100313.38;;;21.67;74.62
15314;BME280;7757;52.626;4.746;2023-09-18T01:23:18;100309.03;;;21.66;74.36
15314;BME280;7757;52.626;4.746;2023-09-18T01:25:43;100269.00;;;21.46;74.35
15314;BME280;7757;52.626;4.746;2023-09-18T01:28:09;100298.94;;;21.61;75.34
15314;BME280;7757;52.626;4.746;2023-09-18T01:30:34;100284.50;;;21.41;75.85
15314;BME280;7757;52.626;4.746;2023-09-18T01:33:01;100271.19;;;21.39;76.00
15314;BME280;7757;52.626;4.746;2023-09-18T01:35:27;100270.63;;;21.47;75.19
15314;BME280;7757;52.626;4.746;2023-09-18T01:38:00;100284.81;;;21.69;74.47
15314;BME280;7757;52.626;4.746;2023-09-18T01:40:26;100211.06;;;21.31;74.57
15314;BME280;7757;52.626;4.746;2023-09-18T01:42:53;100270.63;;;21.67;73.98
15314;BME280;7757;52.626;4.746;2023-09-18T01:45:18;100240.16;;;21.45;74.26
15314;BME280;7757;52.626;4.746;2023-09-18T01:47:45;100210.22;;;21.30;74.37
15314;BME280;7757;52.626;4.746;2023-09-18T01:50:11;100271.47;;;21.63;75.52
15314;BME280;7757;52.626;4.746;2023-09-18T01:52:37;100247.22;;;21.46;75.48
15314;BME280;7757;52.626;4.746;2023-09-18T01:55:03;100251.31;;;21.69;75.04
15314;BME280;7757;52.626;4.746;2023-09-18T01:57:32;100236.34;;;21.56;74.62
15314;BME280;7757;52.626;4.746;2023-09-18T01:59:58;100237.16;;;21.62;74.10
15314;BME280;7757;52.626;4.746;2023-09-18T02:02:23;100234.72;;;21.55;74.09
15314;BME280;7757;52.626;4.746;2023-09-18T02:04:49;100251.31;;;21.69;73.76
15314;BME280;7757;52.626;4.746;2023-09-18T02:07:14;100258.41;;;21.75;74.24
15314;BME280;7757;52.626;4.746;2023-09-18T02:09:41;100243.97;;;21.69;73.99
15314;BME280;7757;52.626;4.746;2023-09-18T02:12:07;100264.09;;;21.74;74.10
15314;BME280;7757;52.626;4.746;2023-09-18T02:14:32;100250.78;;;21.72;73.80
15314;BME280;7757;52.626;4.746;2023-09-18T02:17:00;100234.19;;;21.28;76.00
15314;BME280;7757;52.626;4.746;2023-09-18T02:19:26;100242.09;;;21.55;73.89
15314;BME280;7757;52.626;4.746;2023-09-18T02:21:52;100237.97;;;21.52;74.53
15314;BME280;7757;52.626;4.746;2023-09-18T02:24:19;100260.84;;;21.72;74.24
15314;BME280;7757;52.626;4.746;2023-09-18T02:26:45;100251.34;;;21.64;74.51
15314;BME280;7757;52.626;4.746;2023-09-18T02:29:12;100260.84;;;21.66;75.23
15314;BME280;7757;52.626;4.746;2023-09-18T02:31:39;100258.09;;;21.77;74.57
15314;BME280;7757;52.626;4.746;2023-09-18T02:34:06;100243.44;;;21.62;74.20
15314;BME280;7757;52.626;4.746;2023-09-18T02:36:33;100216.78;;;21.54;74.07
15314;BME280;7757;52.626;4.746;2023-09-18T02:38:58;100239.88;;;21.62;74.69
15314;BME280;7757;52.626;4.746;2023-09-18T02:41:23;100240.94;;;21.76;74.45
15314;BME280;7757;52.626;4.746;2023-09-18T02:43:49;100226.56;;;21.60;74.08
15314;BME280;7757;52.626;4.746;2023-09-18T02:46:14;100223.28;;;21.63;74.09
15314;BME280;7757;52.626;4.746;2023-09-18T02:48:40;100238.50;;;21.80;74.51
15314;BME280;7757;52.626;4.746;2023-09-18T02:51:06;100216.75;;;21.64;73.72
15314;BME280;7757;52.626;4.746;2023-09-18T02:53:31;100221.66;;;21.73;74.51
15314;BME280;7757;52.626;4.746;2023-09-18T02:55:58;100231.44;;;21.79;74.21
15314;BME280;7757;52.626;4.746;2023-09-18T02:58:26;100221.91;;;21.76;74.27
15314;BME280;7757;52.626;4.746;2023-09-18T03:00:55;100215.66;;;21.81;74.82
15314;BME280;7757;52.626;4.746;2023-09-18T03:03:20;100186.53;;;21.71;74.24
15314;BME280;7757;52.626;4.746;2023-09-18T03:05:46;100178.63;;;21.85;73.93
15314;BME280;7757;52.626;4.746;2023-09-18T03:08:14;100172.91;;;21.81;74.64
15314;BME280;7757;52.626;4.746;2023-09-18T03:10:41;100164.50;;;21.73;74.43
15314;BME280;7757;52.626;4.746;2023-09-18T03:13:09;100167.44;;;21.76;73.93
15314;BME280;7757;52.626;4.746;2023-09-18T03:15:35;100161.22;;;21.76;75.01
15314;BME280;7757;52.626;4.746;2023-09-18T03:18:03;100154.97;;;21.75;74.00
15314;BME280;7757;52.626;4.746;2023-09-18T03:20:30;100139.75;;;21.64;74.85
15314;BME280;7757;52.626;4.746;2023-09-18T03:22:58;100145.69;;;21.81;74.38
15314;BME280;7757;52.626;4.746;2023-09-18T03:25:24;100122.03;;;21.72;74.87
15314;BME280;7757;52.626;4.746;2023-09-18T03:27:51;100107.91;;;21.59;75.66
15314;BME280;7757;52.626;4.746;2023-09-18T03:30:18;100119.28;;;21.72;75.45
15314;BME280;7757;52.626;4.746;2023-09-18T03:32:45;100100.25;;;21.61;74.47
15314;BME280;7757;52.626;4.746;2023-09-18T03:35:11;100117.13;;;21.79;74.91
15314;BME280;7757;52.626;4.746;2023-09-18T03:37:50;100095.88;;;21.76;74.42
15314;BME280;7757;52.626;4.746;2023-09-18T03:40:17;100042.97;;;20.97;78.57
15314;BME280;7757;52.626;4.746;2023-09-18T03:42:44;100057.88;;;21.45;75.80
15314;BME280;7757;52.626;4.746;2023-09-18T03:45:09;100106.00;;;21.60;75.89
15314;BME280;7757;52.626;4.746;2023-09-18T03:47:36;100121.47;;;21.75;75.06
15314;BME280;7757;52.626;4.746;2023-09-18T03:50:03;100104.88;;;21.71;74.78
15314;BME280;7757;52.626;4.746;2023-09-18T03:52:28;100098.13;;;21.48;76.54
15314;BME280;7757;52.626;4.746;2023-09-18T03:54:54;99932.66;;;20.71;75.36
15314;BME280;7757;52.626;4.746;2023-09-18T03:57:19;100077.94;;;21.64;75.68
15314;BME280;7757;52.626;4.746;2023-09-18T03:59:44;100080.34;;;21.76;74.66
15314;BME280;7757;52.626;4.746;2023-09-18T04:02:11;100075.19;;;21.75;75.16
15314;BME280;7757;52.626;4.746;2023-09-18T04:04:36;100082.28;;;21.76;74.78
15314;BME280;7757;52.626;4.746;2023-09-18T04:07:05;100077.91;;;21.75;74.52
15314;BME280;7757;52.626;4.746;2023-09-18T04:09:31;100074.94;;;21.66;75.28
15314;BME280;7757;52.626;4.746;2023-09-18T04:11:58;100039.88;;;21.49;75.15
15314;BME280;7757;52.626;4.746;2023-09-18T04:14:23;100078.19;;;21.73;75.33
15314;BME280;7757;52.626;4.746;2023-09-18T04:16:48;100070.59;;;21.65;75.43
15314;BME280;7757;52.626;4.746;2023-09-18T04:19:14;100037.16;;;21.54;74.67
15314;BME280;7757;52.626;4.746;2023-09-18T04:21:40;99990.72;;;21.31;74.24
15314;BME280;7757;52.626;4.746;2023-09-18T04:24:05;100046.63;;;21.72;74.42
15314;BME280;7757;52.626;4.746;2023-09-18T04:26:31;100043.09;;;21.61;74.58
15314;BME280;7757;52.626;4.746;2023-09-18T04:28:58;100034.41;;;21.59;74.45
15314;BME280;7757;52.626;4.746;2023-09-18T04:31:24;100046.38;;;21.68;74.49
15314;BME280;7757;52.626;4.746;2023-09-18T04:33:49;100085.78;;;21.76;73.87
15314;BME280;7757;52.626;4.746;2023-09-18T04:36:15;100132.88;;;21.77;74.81
15314;BME280;7757;52.626;4.746;2023-09-18T04:38:41;100120.41;;;21.60;75.41
15314;BME280;7757;52.626;4.746;2023-09-18T04:41:06;100166.41;;;21.72;77.13
15314;BME280;7757;52.626;4.746;2023-09-18T04:43:37;100134.31;;;21.64;77.03
15314;BME280;7757;52.626;4.746;2023-09-18T04:46:07;100028.44;;;21.52;76.17
15314;BME280;7757;52.626;4.746;2023-09-18T04:48:33;100045.00;;;21.66;75.25
15314;BME280;7757;52.626;4.746;2023-09-18T04:51:02;100058.03;;;21.74;76.24
15314;BME280;7757;52.626;4.746;2023-09-18T04:53:29;100067.28;;;21.73;76.05
15314;BME280;7757;52.626;4.746;2023-09-18T04:55:55;100071.38;;;21.70;76.35
15314;BME280;7757;52.626;4.746;2023-09-18T04:58:20;100056.97;;;21.65;75.61
15314;BME280;7757;52.626;4.746;2023-09-18T05:00:46;100027.09;;;21.50;75.75
15314;BME280;7757;52.626;4.746;2023-09-18T05:03:12;100050.69;;;21.75;76.18
15314;BME280;7757;52.626;4.746;2023-09-18T05:05:38;99972.72;;;21.35;75.67
15314;BME280;7757;52.626;4.746;2023-09-18T05:08:06;100000.69;;;21.60;76.15
15314;BME280;7757;52.626;4.746;2023-09-18T05:10:36;99996.28;;;21.69;76.67
15314;BME280;7757;52.626;4.746;2023-09-18T05:13:03;100021.50;;;21.85;76.81
15314;BME280;7757;52.626;4.746;2023-09-18T05:15:29;99997.84;;;21.81;76.00
15314;BME280;7757;52.626;4.746;2023-09-18T05:17:56;100013.31;;;21.95;76.99
15314;BME280;7757;52.626;4.746;2023-09-18T05:20:24;100015.19;;;22.00;75.86
15314;BME280;7757;52.626;4.746;2023-09-18T05:22:52;100016.88;;;21.96;75.67
15314;BME280;7757;52.626;4.746;2023-09-18T05:25:25;100007.56;;;22.02;75.65
15314;BME280;7757;52.626;4.746;2023-09-18T05:27:52;100011.09;;;22.07;74.89
15314;BME280;7757;52.626;4.746;2023-09-18T05:30:28;100016.22;;;22.09;74.62
15314;BME280;7757;52.626;4.746;2023-09-18T05:32:55;99993.16;;;22.01;75.38
15314;BME280;7757;52.626;4.746;2023-09-18T05:35:21;100005.06;;;22.10;74.32
15314;BME280;7757;52.626;4.746;2023-09-18T05:37:47;99972.22;;;21.92;74.01
15314;BME280;7757;52.626;4.746;2023-09-18T05:40:13;100006.72;;;22.06;74.03
15314;BME280;7757;52.626;4.746;2023-09-18T05:42:41;99998.03;;;22.04;74.54
15314;BME280;7757;52.626;4.746;2023-09-18T05:45:11;99995.00;;;22.06;74.16
15314;BME280;7757;52.626;4.746;2023-09-18T05:47:37;99979.00;;;21.99;73.84
15314;BME280;7757;52.626;4.746;2023-09-18T05:50:07;99985.19;;;22.10;73.85
15314;BME280;7757;52.626;4.746;2023-09-18T05:52:33;99991.72;;;22.09;74.72
15314;BME280;7757;52.626;4.746;2023-09-18T05:55:02;100003.97;;;22.11;74.30
15314;BME280;7757;52.626;4.746;2023-09-18T05:57:27;100009.19;;;22.03;74.55
15314;BME280;7757;52.626;4.746;2023-09-18T05:59:54;100024.41;;;22.14;73.63
15314;BME280;7757;52.626;4.746;2023-09-18T06:02:20;100017.34;;;22.08;74.14
15314;BME280;7757;52.626;4.746;2023-09-18T06:04:47;100017.00;;;22.14;74.16
15314;BME280;7757;52.626;4.746;2023-09-18T06:07:12;99998.38;;;21.93;74.73
15314;BME280;7757;52.626;4.746;2023-09-18T06:09:38;100031.19;;;22.16;73.89
15314;BME280;7757;52.626;4.746;2023-09-18T06:12:05;100018.13;;;22.13;73.75
15314;BME280;7757;52.626;4.746;2023-09-18T06:14:31;100040.19;;;22.17;73.97
15314;BME280;7757;52.626;4.746;2023-09-18T06:16:59;100043.16;;;22.15;74.10
15314;BME280;7757;52.626;4.746;2023-09-18T06:19:24;100036.63;;;22.16;73.85
15314;BME280;7757;52.626;4.746;2023-09-18T06:21:49;100044.25;;;22.14;73.16
15314;BME280;7757;52.626;4.746;2023-09-18T06:24:15;100048.91;;;22.09;74.38
15314;BME280;7757;52.626;4.746;2023-09-18T06:26:40;100021.19;;;21.97;73.52
15314;BME280;7757;52.626;4.746;2023-09-18T06:29:05;100047.28;;;22.13;73.14
15314;BME280;7757;52.626;4.746;2023-09-18T06:31:31;100031.75;;;22.13;73.44
15314;BME280;7757;52.626;4.746;2023-09-18T06:33:57;100048.31;;;22.22;72.57
15314;BME280;7757;52.626;4.746;2023-09-18T06:36:22;100037.72;;;22.15;73.94
15314;BME280;7757;52.626;4.746;2023-09-18T06:38:47;100038.03;;;22.09;73.47
15314;BME280;7757;52.626;4.746;2023-09-18T06:41:13;100063.78;;;22.27;72.50
15314;BME280;7757;52.626;4.746;2023-09-18T06:43:39;100024.75;;;22.02;74.10
15314;BME280;7757;52.626;4.746;2023-09-18T06:46:07;100046.88;;;22.30;73.58
15314;BME280;7757;52.626;4.746;2023-09-18T06:48:34;99986.88;;;22.01;73.60
15314;BME280;7757;52.626;4.746;2023-09-18T06:51:00;99984.38;;;22.09;72.92
15314;BME280;7757;52.626;4.746;2023-09-18T06:53:26;100026.09;;;22.44;71.95
15314;BME280;7757;52.626;4.746;2023-09-18T06:55:55;100019.91;;;22.33;72.45
15314;BME280;7757;52.626;4.746;2023-09-18T06:58:20;100017.38;;;22.42;72.27
15314;BME280;7757;52.626;4.746;2023-09-18T07:00:46;100023.69;;;22.37;72.87
15314;BME280;7757;52.626;4.746;2023-09-18T07:03:13;100019.97;;;22.23;74.17
15314;BME280;7757;52.626;4.746;2023-09-18T07:05:40;99996.59;;;22.12;73.89
15314;BME280;7757;52.626;4.746;2023-09-18T07:08:05;99986.69;;;22.26;72.58
15314;BME280;7757;52.626;4.746;2023-09-18T07:10:35;100003.25;;;22.40;72.76
15314;BME280;7757;52.626;4.746;2023-09-18T07:13:05;100007.31;;;22.42;72.80
15314;BME280;7757;52.626;4.746;2023-09-18T07:15:30;99997.50;;;22.41;74.05
15314;BME280;7757;52.626;4.746;2023-09-18T07:17:56;99976.25;;;22.38;73.93
15314;BME280;7757;52.626;4.746;2023-09-18T07:20:23;99962.69;;;22.33;73.68
15314;BME280;7757;52.626;4.746;2023-09-18T07:22:49;99972.06;;;22.51;73.47
15314;BME280;7757;52.626;4.746;2023-09-18T07:25:16;100000.09;;;22.56;73.90
15314;BME280;7757;52.626;4.746;2023-09-18T07:27:42;99999.59;;;22.54;72.75
15314;BME280;7757;52.626;4.746;2023-09-18T07:30:11;100002.00;;;22.56;72.44
15314;BME280;7757;52.626;4.746;2023-09-18T07:32:39;99992.78;;;22.52;72.41
15314;BME280;7757;52.626;4.746;2023-09-18T07:35:07;100003.38;;;22.58;73.05
15314;BME280;7757;52.626;4.746;2023-09-18T07:37:32;100001.69;;;22.62;72.22
15314;BME280;7757;52.626;4.746;2023-09-18T07:39:58;99971.75;;;22.57;72.39
15314;BME280;7757;52.626;4.746;2023-09-18T07:42:25;99982.22;;;22.79;71.82
15314;BME280;7757;52.626;4.746;2023-09-18T07:44:51;99992.13;;;22.70;71.70
15314;BME280;7757;52.626;4.746;2023-09-18T07:47:16;99997.28;;;22.71;71.70
15314;BME280;7757;52.626;4.746;2023-09-18T07:49:42;100014.94;;;22.79;71.76
15314;BME280;7757;52.626;4.746;2023-09-18T07:52:07;100011.69;;;22.77;71.95
15314;BME280;7757;52.626;4.746;2023-09-18T07:54:33;100012.41;;;22.88;71.60
15314;BME280;7757;52.626;4.746;2023-09-18T07:56:58;100024.34;;;22.92;70.54
15314;BME280;7757;52.626;4.746;2023-09-18T07:59:26;100026.84;;;22.88;70.70
15314;BME280;7757;52.626;4.746;2023-09-18T08:01:52;100009.97;;;22.86;70.88
15314;BME280;7757;52.626;4.746;2023-09-18T08:04:19;100020.47;;;22.98;70.37
15314;BME280;7757;52.626;4.746;2023-09-18T08:06:45;100013.88;;;23.04;69.71
15314;BME280;7757;52.626;4.746;2023-09-18T08:09:11;100042.59;;;23.25;70.08
15314;BME280;7757;52.626;4.746;2023-09-18T08:11:38;100046.13;;;23.25;69.42
15314;BME280;7757;52.626;4.746;2023-09-18T08:14:08;100049.69;;;23.26;69.19
15314;BME280;7757;52.626;4.746;2023-09-18T08:16:33;100058.97;;;23.25;69.93
15314;BME280;7757;52.626;4.746;2023-09-18T08:19:01;100059.03;;;23.20;70.45
15314;BME280;7757;52.626;4.746;2023-09-18T08:21:27;100046.53;;;23.14;69.67
15314;BME280;7757;52.626;4.746;2023-09-18T08:23:54;100024.91;;;22.94;69.27
15314;BME280;7757;52.626;4.746;2023-09-18T08:26:20;100025.13;;;22.97;70.08
15314;BME280;7757;52.626;4.746;2023-09-18T08:28:46;100062.03;;;23.18;71.58
15314;BME280;7757;52.626;4.746;2023-09-18T08:31:11;100062.97;;;23.04;70.73
15314;BME280;7757;52.626;4.746;2023-09-18T08:33:37;100025.28;;;22.82;70.07
15314;BME280;7757;52.626;4.746;2023-09-18T08:36:02;100061.56;;;23.11;70.39
15314;BME280;7757;52.626;4.746;2023-09-18T08:38:27;100059.41;;;23.08;69.91
15314;BME280;7757;52.626;4.746;2023-09-18T08:40:54;100057.44;;;23.14;69.62
15314;BME280;7757;52.626;4.746;2023-09-18T08:43:21;100064.13;;;23.26;69.28
15314;BME280;7757;52.626;4.746;2023-09-18T08:45:51;100061.75;;;23.20;69.54
15314;BME280;7757;52.626;4.746;2023-09-18T08:48:21;100066.91;;;23.50;69.17
15314;BME280;7757;52.626;4.746;2023-09-18T08:50:47;100060.53;;;23.31;69.23
15314;BME280;7757;52.626;4.746;2023-09-18T08:53:13;100043.78;;;23.14;69.53
15314;BME280;7757;52.626;4.746;2023-09-18T08:55:40;100069.28;;;23.28;69.27
15314;BME280;7757;52.626;4.746;2023-09-18T08:58:07;100046.72;;;23.22;69.79
15314;BME280;7757;52.626;4.746;2023-09-18T09:00:38;100059.06;;;23.44;68.94
15314;BME280;7757;52.626;4.746;2023-09-18T09:03:04;100063.41;;;23.45;69.00
15314;BME280;7757;52.626;4.746;2023-09-18T09:05:30;100032.47;;;23.54;69.80
15314;BME280;7757;52.626;4.746;2023-09-18T09:07:56;100055.69;;;23.75;68.02
15314;BME280;7757;52.626;4.746;2023-09-18T09:10:22;100061.00;;;23.67;68.92
15314;BME280;7757;52.626;4.746;2023-09-18T09:12:53;100053.63;;;23.44;69.71
15314;BME280;7757;52.626;4.746;2023-09-18T09:15:43;100076.22;;;23.49;69.06
15314;BME280;7757;52.626;4.746;2023-09-18T09:18:07;100072.09;;;23.52;69.52
15314;BME280;7757;52.626;4.746;2023-09-18T09:20:35;100082.91;;;23.62;68.61
15314;BME280;7757;52.626;4.746;2023-09-18T09:23:03;100080.75;;;23.59;68.79
15314;BME280;7757;52.626;4.746;2023-09-18T09:25:30;100050.19;;;23.57;68.57
15314;BME280;7757;52.626;4.746;2023-09-18T09:28:06;100077.38;;;23.67;68.19
15314;BME280;7757;52.626;4.746;2023-09-18T09:30:34;100076.50;;;23.71;68.26
15314;BME280;7757;52.626;4.746;2023-09-18T09:33:04;100092.88;;;23.71;68.36
15314;BME280;7757;52.626;4.746;2023-09-18T09:35:40;100084.09;;;23.51;68.59
15314;BME280;7757;52.626;4.746;2023-09-18T09:38:09;100087.47;;;23.66;68.26
15314;BME280;7757;52.626;4.746;2023-09-18T09:40:38;100070.81;;;23.44;68.87
15314;BME280;7757;52.626;4.746;2023-09-18T09:43:08;100091.88;;;23.62;68.67
15314;BME280;7757;52.626;4.746;2023-09-18T09:45:33;100077.41;;;23.85;68.30
15314;BME280;7757;52.626;4.746;2023-09-18T09:48:05;100067.09;;;23.59;68.03
15314;BME280;7757;52.626;4.746;2023-09-18T09:50:32;100056.09;;;23.40;68.40
15314;BME280;7757;52.626;4.746;2023-09-18T09:52:58;100056.66;;;23.37;69.12
15314;BME280;7757;52.626;4.746;2023-09-18T09:57:53;100092.75;;;23.58;68.69
15314;BME280;7757;52.626;4.746;2023-09-18T10:00:19;100092.41;;;23.41;69.38
15314;BME280;7757;52.626;4.746;2023-09-18T10:03:03;100088.84;;;23.40;69.57
15314;BME280;7757;52.626;4.746;2023-09-18T10:05:31;100071.69;;;23.34;69.26
15314;BME280;7757;52.626;4.746;2023-09-18T10:08:00;100086.94;;;23.41;69.01
15314;BME280;7757;52.626;4.746;2023-09-18T10:10:38;100067.66;;;23.27;68.87
15314;BME280;7757;52.626;4.746;2023-09-18T10:13:09;100100.88;;;23.39;69.44
15314;BME280;7757;52.626;4.746;2023-09-18T10:15:37;100099.25;;;23.33;68.95
15314;BME280;7757;52.626;4.746;2023-09-18T10:18:22;100088.66;;;23.26;69.07
15314;BME280;7757;52.626;4.746;2023-09-18T10:20:57;100079.16;;;23.24;69.59
15314;BME280;7757;52.626;4.746;2023-09-18T10:26:22;100081.28;;;23.32;68.53
15314;BME280;7757;52.626;4.746;2023-09-18T10:28:55;100096.16;;;23.45;68.68
15314;BME280;7757;52.626;4.746;2023-09-18T10:31:27;100098.44;;;23.32;69.17
15314;BME280;7757;52.626;4.746;2023-09-18T10:33:55;100099.25;;;23.33;69.21
15314;BME280;7757;52.626;4.746;2023-09-18T10:36:22;100091.03;;;23.38;68.42
15314;BME280;7757;52.626;4.746;2023-09-18T10:38:49;100100.06;;;23.39;68.54
15314;BME280;7757;52.626;4.746;2023-09-18T10:41:19;100091.84;;;23.44;68.10
15314;BME280;7757;52.626;4.746;2023-09-18T10:43:46;100100.59;;;23.35;68.38
15314;BME280;7757;52.626;4.746;2023-09-18T10:46:12;100073.75;;;23.19;68.45
15314;BME280;7757;52.626;4.746;2023-09-18T10:48:41;100105.50;;;23.39;67.99
15314;BME280;7757;52.626;4.746;2023-09-18T10:51:07;100093.63;;;23.24;68.40
15314;BME280;7757;52.626;4.746;2023-09-18T10:53:34;100104.13;;;23.36;68.30
15314;BME280;7757;52.626;4.746;2023-09-18T10:56:01;100101.72;;;23.34;67.79
15314;BME280;7757;52.626;4.746;2023-09-18T10:58:28;100113.41;;;23.40;67.76
15314;BME280;7757;52.626;4.746;2023-09-18T11:00:54;100109.31;;;23.43;67.28
15314;BME280;7757;52.626;4.746;2023-09-18T11:03:22;100078.00;;;23.30;67.83
15314;BME280;7757;52.626;4.746;2023-09-18T11:06:01;100112.22;;;23.51;68.05
15314;BME280;7757;52.626;4.746;2023-09-18T11:11:10;100101.88;;;23.48;67.72
15314;BME280;7757;52.626;4.746;2023-09-18T11:13:46;100112.97;;;23.57;67.07
15314;BME280;7757;52.626;4.746;2023-09-18T11:18:42;100118.44;;;23.57;67.50
15314;BME280;7757;52.626;4.746;2023-09-18T11:21:11;100107.75;;;23.60;67.21
15314;BME280;7757;52.626;4.746;2023-09-18T11:23:39;100105.03;;;23.60;66.96
15314;BME280;7757;52.626;4.746;2023-09-18T11:26:09;100124.31;;;23.69;66.24
15314;BME280;7757;52.626;4.746;2023-09-18T11:28:35;100112.75;;;23.77;65.95
15314;BME280;7757;52.626;4.746;2023-09-18T11:31:03;100111.66;;;23.78;66.16
15314;BME280;7757;52.626;4.746;2023-09-18T11:33:35;100119.50;;;23.84;65.98
15314;BME280;7757;52.626;4.746;2023-09-18T11:36:06;100124.16;;;23.84;65.54
15314;BME280;7757;52.626;4.746;2023-09-18T11:38:33;100087.19;;;23.68;65.40
15314;BME280;7757;52.626;4.746;2023-09-18T11:41:00;100109.25;;;23.71;65.65
15314;BME280;7757;52.626;4.746;2023-09-18T11:43:28;100115.44;;;23.82;65.59
15314;BME280;7757;52.626;4.746;2023-09-18T11:45:59;100112.16;;;23.80;65.21
15314;BME280;7757;52.626;4.746;2023-09-18T11:48:27;100069.44;;;23.70;64.97
15314;BME280;7757;52.626;4.746;2023-09-18T11:50:56;100087.53;;;23.85;64.86
15314;BME280;7757;52.626;4.746;2023-09-18T11:53:23;100096.66;;;23.99;65.12
15314;BME280;7757;52.626;4.746;2023-09-18T11:55:49;100025.44;;;23.48;64.97
15314;BME280;7757;52.626;4.746;2023-09-18T11:58:15;100022.25;;;23.41;65.35
15314;BME280;7757;52.626;4.746;2023-09-18T12:00:41;100065.00;;;23.74;65.10
15314;BME280;7757;52.626;4.746;2023-09-18T12:03:19;100061.28;;;23.65;64.87
15314;BME280;7757;52.626;4.746;2023-09-18T12:08:18;100091.25;;;23.94;65.29
15314;BME280;7757;52.626;4.746;2023-09-18T12:10:43;100070.91;;;23.81;65.11
15314;BME280;7757;52.626;4.746;2023-09-18T12:13:08;100092.44;;;23.88;65.28
15314;BME280;7757;52.626;4.746;2023-09-18T12:15:34;100073.59;;;23.63;65.21
15314;BME280;7757;52.626;4.746;2023-09-18T12:18:26;100093.63;;;23.77;65.69
15314;BME280;7757;52.626;4.746;2023-09-18T12:20:54;100109.44;;;23.80;65.55
15314;BME280;7757;52.626;4.746;2023-09-18T12:23:21;100104.84;;;23.75;65.44
15314;BME280;7757;52.626;4.746;2023-09-18T12:25:50;100084.25;;;23.64;65.50
15314;BME280;7757;52.626;4.746;2023-09-18T12:28:17;100104.38;;;23.92;65.53
15314;BME280;7757;52.626;4.746;2023-09-18T12:30:43;100064.31;;;23.64;65.14
15314;BME280;7757;52.626;4.746;2023-09-18T12:33:08;100109.31;;;23.90;64.82
15314;BME280;7757;52.626;4.746;2023-09-18T12:35:34;100118.63;;;23.89;64.99
15314;BME280;7757;52.626;4.746;2023-09-18T12:38:00;100066.47;;;23.67;64.65
15314;BME280;7757;52.626;4.746;2023-09-18T12:40:28;100080.69;;;23.64;65.29
15314;BME280;7757;52.626;4.746;2023-09-18T12:42:57;100091.28;;;23.70;65.36
15314;BME280;7757;52.626;4.746;2023-09-18T12:45:26;100046.13;;;23.54;65.45
15314;BME280;7757;52.626;4.746;2023-09-18T12:47:57;100084.16;;;23.93;64.74
15314;BME280;7757;52.626;4.746;2023-09-18T12:50:24;100070.78;;;23.92;64.70
15314;BME280;7757;52.626;4.746;2023-09-18T12:52:53;100078.94;;;23.97;65.14
15314;BME280;7757;52.626;4.746;2023-09-18T12:55:26;100077.53;;;23.99;64.62
15314;BME280;7757;52.626;4.746;2023-09-18T12:57:54;100033.53;;;23.77;64.61
15314;BME280;7757;52.626;4.746;2023-09-18T13:00:21;100064.38;;;24.01;64.81
15314;BME280;7757;52.626;4.746;2023-09-18T13:02:52;100031.28;;;23.84;64.51
15314;BME280;7757;52.626;4.746;2023-09-18T13:05:21;100020.66;;;23.82;64.23
15314;BME280;7757;52.626;4.746;2023-09-18T13:07:51;100028.72;;;23.93;63.87
15314;BME280;7757;52.626;4.746;2023-09-18T13:10:18;100001.38;;;23.74;64.22
15314;BME280;7757;52.626;4.746;2023-09-18T13:12:51;100044.91;;;24.08;64.07
15314;BME280;7757;52.626;4.746;2023-09-18T13:15:29;100028.13;;;23.96;63.94